Terminal Aerodrome Forecast
Issued by NWS Glasgow, MT

Home | Current Version | Previous Version | Text Only | Print | Product List | Glossary On
Versions: 1 2 3 4 5 6 7 8 9 10 11 12 13 14 15 16 17 18
000
FTUS45 KGGW 261100
TAFGGW
TAF
KGGW 261129Z 2612/2712 09004KT P6SM -SHSN BKN016 OVC035
     FM261800 11009KT 3SM -SN OVC016=

USA.gov is the U.S. government's official web portal to all federal, state and local government web resources and services.